sensor_id;sensor_type;location;lat;lon;timestamp;temperature;humidity
3614;DHT22;1821;50.936;6.854;2023-07-29T00:00:09;19.50;99.90
3614;DHT22;1821;50.936;6.854;2023-07-29T00:00:51;19.50;99.90
3614;DHT22;1821;50.936;6.854;2023-07-29T00:01:35;19.50;99.90
3614;DHT22;1821;50.936;6.854;2023-07-29T00:02:17;19.50;99.90
3614;DHT22;1821;50.936;6.854;2023-07-29T00:02:59;19.50;99.90
3614;DHT22;1821;50.936;6.854;2023-07-29T00:03:41;19.50;99.90
3614;DHT22;1821;50.936;6.854;2023-07-29T00:04:23;19.50;99.90
3614;DHT22;1821;50.936;6.854;2023-07-29T00:05:05;19.60;99.90
3614;DHT22;1821;50.936;6.854;2023-07-29T00:05:47;19.50;99.90
3614;DHT22;1821;50.936;6.854;2023-07-29T00:06:29;19.50;99.90
3614;DHT22;1821;50.936;6.854;2023-07-29T00:07:12;19.50;99.90
3614;DHT22;1821;50.936;6.854;2023-07-29T00:07:54;19.50;99.90
3614;DHT22;1821;50.936;6.854;2023-07-29T00:08:35;19.50;99.90
3614;DHT22;1821;50.936;6.854;2023-07-29T00:09:18;19.40;99.90
3614;DHT22;1821;50.936;6.854;2023-07-29T00:09:59;19.50;99.90
3614;DHT22;1821;50.936;6.854;2023-07-29T00:10:42;19.40;1.00
3614;DHT22;1821;50.936;6.854;2023-07-29T00:11:24;19.40;1.00
3614;DHT22;1821;50.936;6.854;2023-07-29T00:12:06;19.40;1.00
3614;DHT22;1821;50.936;6.854;2023-07-29T00:12:48;19.40;1.00
3614;DHT22;1821;50.936;6.854;2023-07-29T00:13:30;19.40;1.00
3614;DHT22;1821;50.936;6.854;2023-07-29T00:14:14;19.50;1.00
3614;DHT22;1821;50.936;6.854;2023-07-29T00:14:56;19.40;1.00
3614;DHT22;1821;50.936;6.854;2023-07-29T00:15:38;19.40;1.00
3614;DHT22;1821;50.936;6.854;2023-07-29T00:16:20;19.40;1.00
3614;DHT22;1821;50.936;6.854;2023-07-29T00:17:05;19.40;1.00
3614;DHT22;1821;50.936;6.854;2023-07-29T00:17:50;19.40;1.00
3614;DHT22;1821;50.936;6.854;2023-07-29T00:18:32;19.20;1.00
3614;DHT22;1821;50.936;6.854;2023-07-29T00:19:14;19.30;1.00
3614;DHT22;1821;50.936;6.854;2023-07-29T00:19:56;19.30;1.00
3614;DHT22;1821;50.936;6.854;2023-07-29T00:20:38;19.40;1.00
3614;DHT22;1821;50.936;6.854;2023-07-29T00:21:20;19.40;1.00
3614;DHT22;1821;50.936;6.854;2023-07-29T00:22:04;19.30;1.00
3614;DHT22;1821;50.936;6.854;2023-07-29T00:22:46;19.40;1.00
3614;DHT22;1821;50.936;6.854;2023-07-29T00:23:31;19.40;1.00
3614;DHT22;1821;50.936;6.854;2023-07-29T00:24:13;19.40;1.00
3614;DHT22;1821;50.936;6.854;2023-07-29T00:24:55;19.40;1.00
3614;DHT22;1821;50.936;6.854;2023-07-29T00:25:42;22.30;1.00
3614;DHT22;1821;50.936;6.854;2023-07-29T00:26:25;19.40;1.00
3614;DHT22;1821;50.936;6.854;2023-07-29T00:27:11;19.40;1.00
3614;DHT22;1821;50.936;6.854;2023-07-29T00:27:56;19.40;1.00
3614;DHT22;1821;50.936;6.854;2023-07-29T00:28:40;19.50;1.00
3614;DHT22;1821;50.936;6.854;2023-07-29T00:29:22;19.40;1.00
3614;DHT22;1821;50.936;6.854;2023-07-29T00:30:04;19.40;1.00
3614;DHT22;1821;50.936;6.854;2023-07-29T00:30:47;19.40;1.00
3614;DHT22;1821;50.936;6.854;2023-07-29T00:31:29;19.30;1.00
3614;DHT22;1821;50.936;6.854;2023-07-29T00:32:11;19.30;1.00
3614;DHT22;1821;50.936;6.854;2023-07-29T00:32:53;19.30;1.00
3614;DHT22;1821;50.936;6.854;2023-07-29T00:33:35;19.30;1.00
3614;DHT22;1821;50.936;6.854;2023-07-29T00:34:17;19.30;1.00
3614;DHT22;1821;50.936;6.854;2023-07-29T00:35:01;19.30;1.00
3614;DHT22;1821;50.936;6.854;2023-07-29T00:35:43;19.30;1.00
3614;DHT22;1821;50.936;6.854;2023-07-29T00:36:25;19.30;1.00
3614;DHT22;1821;50.936;6.854;2023-07-29T00:37:10;19.30;1.00
3614;DHT22;1821;50.936;6.854;2023-07-29T00:37:54;19.20;1.00
3614;DHT22;1821;50.936;6.854;2023-07-29T00:38:36;19.30;1.00
3614;DHT22;1821;50.936;6.854;2023-07-29T00:39:20;19.20;1.00
3614;DHT22;1821;50.936;6.854;2023-07-29T00:40:15;19.20;41.50
3614;DHT22;1821;50.936;6.854;2023-07-29T00:41:00;19.20;61.10
3614;DHT22;1821;50.936;6.854;2023-07-29T00:41:42;19.20;71.40
3614;DHT22;1821;50.936;6.854;2023-07-29T00:42:24;19.20;16.40
3614;DHT22;1821;50.936;6.854;2023-07-29T00:43:06;19.20;17.80
3614;DHT22;1821;50.936;6.854;2023-07-29T00:43:48;19.20;40.50
3614;DHT22;1821;50.936;6.854;2023-07-29T00:44:30;19.20;46.90
3614;DHT22;1821;50.936;6.854;2023-07-29T00:45:14;19.20;35.80
3614;DHT22;1821;50.936;6.854;2023-07-29T00:45:56;19.20;99.90
3614;DHT22;1821;50.936;6.854;2023-07-29T00:46:40;19.20;62.80
3614;DHT22;1821;50.936;6.854;2023-07-29T00:47:25;19.30;95.40
3614;DHT22;1821;50.936;6.854;2023-07-29T00:48:07;19.20;32.00
3614;DHT22;1821;50.936;6.854;2023-07-29T00:48:49;19.10;80.30
3614;DHT22;1821;50.936;6.854;2023-07-29T00:49:32;19.20;95.70
3614;DHT22;1821;50.936;6.854;2023-07-29T00:50:16;19.20;68.40
3614;DHT22;1821;50.936;6.854;2023-07-29T00:50:58;19.20;99.90
3614;DHT22;1821;50.936;6.854;2023-07-29T00:51:40;19.20;99.90
3614;DHT22;1821;50.936;6.854;2023-07-29T00:52:22;19.20;99.90
3614;DHT22;1821;50.936;6.854;2023-07-29T00:53:06;19.20;99.90
3614;DHT22;1821;50.936;6.854;2023-07-29T00:53:48;19.20;99.90
3614;DHT22;1821;50.936;6.854;2023-07-29T00:54:30;19.20;99.90
3614;DHT22;1821;50.936;6.854;2023-07-29T00:55:15;19.20;99.90
3614;DHT22;1821;50.936;6.854;2023-07-29T00:55:57;19.20;99.90
3614;DHT22;1821;50.936;6.854;2023-07-29T00:56:40;19.20;99.90
3614;DHT22;1821;50.936;6.854;2023-07-29T00:57:22;19.10;99.90
3614;DHT22;1821;50.936;6.854;2023-07-29T00:58:07;19.20;99.90
3614;DHT22;1821;50.936;6.854;2023-07-29T00:58:49;19.20;99.90
3614;DHT22;1821;50.936;6.854;2023-07-29T00:59:35;19.20;99.90
3614;DHT22;1821;50.936;6.854;2023-07-29T01:00:17;19.20;99.90
3614;DHT22;1821;50.936;6.854;2023-07-29T01:01:01;19.20;1.00
3614;DHT22;1821;50.936;6.854;2023-07-29T01:01:44;19.20;99.90
3614;DHT22;1821;50.936;6.854;2023-07-29T01:02:26;19.20;1.00
3614;DHT22;1821;50.936;6.854;2023-07-29T01:03:09;19.20;1.00
3614;DHT22;1821;50.936;6.854;2023-07-29T01:03:51;19.10;99.90
3614;DHT22;1821;50.936;6.854;2023-07-29T01:04:33;19.20;99.90
3614;DHT22;1821;50.936;6.854;2023-07-29T01:05:16;19.20;99.90
3614;DHT22;1821;50.936;6.854;2023-07-29T01:06:20;19.10;1.00
3614;DHT22;1821;50.936;6.854;2023-07-29T01:07:17;19.10;99.90
3614;DHT22;1821;50.936;6.854;2023-07-29T01:08:32;19.20;1.00
3614;DHT22;1821;50.936;6.854;2023-07-29T01:11:23;19.10;1.00
3614;DHT22;1821;50.936;6.854;2023-07-29T01:12:16;19.30;1.00
3614;DHT22;1821;50.936;6.854;2023-07-29T01:14:06;19.20;1.00
3614;DHT22;1821;50.936;6.854;2023-07-29T01:14:59;19.10;1.00
3614;DHT22;1821;50.936;6.854;2023-07-29T01:15:54;19.10;1.00
3614;DHT22;1821;50.936;6.854;2023-07-29T01:16:42;19.10;1.00
3614;DHT22;1821;50.936;6.854;2023-07-29T01:17:42;19.10;1.00
3614;DHT22;1821;50.936;6.854;2023-07-29T01:18:28;19.10;1.00
3614;DHT22;1821;50.936;6.854;2023-07-29T01:20:19;19.20;36.30
3614;DHT22;1821;50.936;6.854;2023-07-29T01:21:07;19.20;99.90
3614;DHT22;1821;50.936;6.854;2023-07-29T01:21:50;19.20;99.50
3614;DHT22;1821;50.936;6.854;2023-07-29T01:22:36;19.20;29.20
3614;DHT22;1821;50.936;6.854;2023-07-29T01:23:25;18.80;99.90
3614;DHT22;1821;50.936;6.854;2023-07-29T01:24:07;19.20;36.80
3614;DHT22;1821;50.936;6.854;2023-07-29T01:24:49;19.20;64.20
3614;DHT22;1821;50.936;6.854;2023-07-29T01:25:31;19.20;70.60
3614;DHT22;1821;50.936;6.854;2023-07-29T01:26:15;19.20;34.30
3614;DHT22;1821;50.936;6.854;2023-07-29T01:26:57;19.20;47.40
3614;DHT22;1821;50.936;6.854;2023-07-29T01:27:45;19.20;1.00
3614;DHT22;1821;50.936;6.854;2023-07-29T01:28:27;19.20;1.00
3614;DHT22;1821;50.936;6.854;2023-07-29T01:29:09;19.20;58.70
3614;DHT22;1821;50.936;6.854;2023-07-29T01:29:52;19.20;99.90
3614;DHT22;1821;50.936;6.854;2023-07-29T01:30:39;19.20;99.90
3614;DHT22;1821;50.936;6.854;2023-07-29T01:31:34;19.20;99.90
3614;DHT22;1821;50.936;6.854;2023-07-29T01:33:27;19.20;99.90
3614;DHT22;1821;50.936;6.854;2023-07-29T01:34:28;19.20;99.90
3614;DHT22;1821;50.936;6.854;2023-07-29T01:35:36;19.40;99.90
3614;DHT22;1821;50.936;6.854;2023-07-29T01:36:22;19.20;99.90
3614;DHT22;1821;50.936;6.854;2023-07-29T01:37:09;19.20;99.90
3614;DHT22;1821;50.936;6.854;2023-07-29T01:38:01;19.20;1.00
3614;DHT22;1821;50.936;6.854;2023-07-29T01:38:44;19.30;1.00
3614;DHT22;1821;50.936;6.854;2023-07-29T01:39:29;19.20;1.00
3614;DHT22;1821;50.936;6.854;2023-07-29T01:40:14;19.20;1.00
3614;DHT22;1821;50.936;6.854;2023-07-29T01:40:56;19.20;1.00
3614;DHT22;1821;50.936;6.854;2023-07-29T01:41:39;19.30;1.00
3614;DHT22;1821;50.936;6.854;2023-07-29T01:42:22;19.20;1.00
3614;DHT22;1821;50.936;6.854;2023-07-29T01:43:04;19.20;1.00
3614;DHT22;1821;50.936;6.854;2023-07-29T01:43:46;19.10;99.90
3614;DHT22;1821;50.936;6.854;2023-07-29T01:44:31;19.10;99.90
3614;DHT22;1821;50.936;6.854;2023-07-29T01:45:15;19.20;99.90
3614;DHT22;1821;50.936;6.854;2023-07-29T01:46:02;19.20;99.90
3614;DHT22;1821;50.936;6.854;2023-07-29T01:46:44;19.20;1.00
3614;DHT22;1821;50.936;6.854;2023-07-29T01:47:26;19.10;99.90
3614;DHT22;1821;50.936;6.854;2023-07-29T01:48:08;19.20;1.00
3614;DHT22;1821;50.936;6.854;2023-07-29T01:48:50;19.20;99.90
3614;DHT22;1821;50.936;6.854;2023-07-29T01:49:32;19.20;1.00
3614;DHT22;1821;50.936;6.854;2023-07-29T01:50:14;19.10;1.00
3614;DHT22;1821;50.936;6.854;2023-07-29T01:50:56;19.10;1.00
3614;DHT22;1821;50.936;6.854;2023-07-29T01:51:38;19.20;99.90
3614;DHT22;1821;50.936;6.854;2023-07-29T01:52:20;19.20;99.90
3614;DHT22;1821;50.936;6.854;2023-07-29T01:53:02;19.10;1.00
3614;DHT22;1821;50.936;6.854;2023-07-29T01:53:44;19.00;99.90
3614;DHT22;1821;50.936;6.854;2023-07-29T01:54:26;19.80;1.00
3614;DHT22;1821;50.936;6.854;2023-07-29T01:55:10;19.10;99.90
3614;DHT22;1821;50.936;6.854;2023-07-29T01:55:52;19.10;1.00
3614;DHT22;1821;50.936;6.854;2023-07-29T01:56:34;19.10;1.00
3614;DHT22;1821;50.936;6.854;2023-07-29T01:57:16;19.10;1.00
3614;DHT22;1821;50.936;6.854;2023-07-29T01:57:58;19.10;83.10
3614;DHT22;1821;50.936;6.854;2023-07-29T01:58:40;19.10;99.90
3614;DHT22;1821;50.936;6.854;2023-07-29T01:59:22;19.10;99.90
3614;DHT22;1821;50.936;6.854;2023-07-29T02:00:05;19.20;99.90
3614;DHT22;1821;50.936;6.854;2023-07-29T02:00:47;19.20;99.90
3614;DHT22;1821;50.936;6.854;2023-07-29T02:01:29;19.20;99.90
3614;DHT22;1821;50.936;6.854;2023-07-29T02:02:15;19.20;1.00
3614;DHT22;1821;50.936;6.854;2023-07-29T02:02:56;19.30;1.00
3614;DHT22;1821;50.936;6.854;2023-07-29T02:03:39;19.30;1.00
3614;DHT22;1821;50.936;6.854;2023-07-29T02:04:21;19.20;1.00
3614;DHT22;1821;50.936;6.854;2023-07-29T02:05:05;19.20;1.00
3614;DHT22;1821;50.936;6.854;2023-07-29T02:05:47;19.50;1.00
3614;DHT22;1821;50.936;6.854;2023-07-29T02:06:31;19.30;24.20
3614;DHT22;1821;50.936;6.854;2023-07-29T02:07:13;19.40;10.40
3614;DHT22;1821;50.936;6.854;2023-07-29T02:07:58;19.30;1.00
3614;DHT22;1821;50.936;6.854;2023-07-29T02:08:40;19.30;1.00
3614;DHT22;1821;50.936;6.854;2023-07-29T02:09:22;19.30;1.00
3614;DHT22;1821;50.936;6.854;2023-07-29T02:10:05;19.30;1.00
3614;DHT22;1821;50.936;6.854;2023-07-29T02:10:47;19.30;1.00
3614;DHT22;1821;50.936;6.854;2023-07-29T02:11:30;19.20;1.70
3614;DHT22;1821;50.936;6.854;2023-07-29T02:12:13;19.30;30.90
3614;DHT22;1821;50.936;6.854;2023-07-29T02:12:57;19.30;96.90
3614;DHT22;1821;50.936;6.854;2023-07-29T02:13:39;19.30;99.90
3614;DHT22;1821;50.936;6.854;2023-07-29T02:14:21;19.30;99.90
3614;DHT22;1821;50.936;6.854;2023-07-29T02:15:05;19.40;99.90
3614;DHT22;1821;50.936;6.854;2023-07-29T02:15:48;19.30;99.90
3614;DHT22;1821;50.936;6.854;2023-07-29T02:16:32;19.30;99.90
3614;DHT22;1821;50.936;6.854;2023-07-29T02:17:16;19.40;1.00
3614;DHT22;1821;50.936;6.854;2023-07-29T02:17:58;19.50;1.00
3614;DHT22;1821;50.936;6.854;2023-07-29T02:18:41;19.30;1.00
3614;DHT22;1821;50.936;6.854;2023-07-29T02:19:25;19.40;1.00
3614;DHT22;1821;50.936;6.854;2023-07-29T02:20:10;19.40;1.00
3614;DHT22;1821;50.936;6.854;2023-07-29T02:20:52;19.50;1.00
3614;DHT22;1821;50.936;6.854;2023-07-29T02:21:34;19.40;1.00
3614;DHT22;1821;50.936;6.854;2023-07-29T02:22:17;19.30;1.00
3614;DHT22;1821;50.936;6.854;2023-07-29T02:22:59;19.50;1.00
3614;DHT22;1821;50.936;6.854;2023-07-29T02:23:43;19.50;12.80
3614;DHT22;1821;50.936;6.854;2023-07-29T02:24:25;18.50;86.70
3614;DHT22;1821;50.936;6.854;2023-07-29T02:25:09;19.50;99.90
3614;DHT22;1821;50.936;6.854;2023-07-29T02:25:52;19.50;99.90
3614;DHT22;1821;50.936;6.854;2023-07-29T02:26:36;19.50;10.20
3614;DHT22;1821;50.936;6.854;2023-07-29T02:27:20;19.60;64.80
3614;DHT22;1821;50.936;6.854;2023-07-29T02:28:04;19.50;63.10
3614;DHT22;1821;50.936;6.854;2023-07-29T02:28:47;19.50;47.60
3614;DHT22;1821;50.936;6.854;2023-07-29T02:29:29;19.50;97.60
3614;DHT22;1821;50.936;6.854;2023-07-29T02:30:14;19.60;99.50
3614;DHT22;1821;50.936;6.854;2023-07-29T02:31:57;19.50;58.90
3614;DHT22;1821;50.936;6.854;2023-07-29T02:32:39;19.50;87.10
3614;DHT22;1821;50.936;6.854;2023-07-29T02:33:21;19.50;97.20
3614;DHT22;1821;50.936;6.854;2023-07-29T02:34:04;19.50;99.90
3614;DHT22;1821;50.936;6.854;2023-07-29T02:34:46;19.60;99.90
3614;DHT22;1821;50.936;6.854;2023-07-29T02:35:28;19.60;88.60
3614;DHT22;1821;50.936;6.854;2023-07-29T02:36:11;19.50;95.00
3614;DHT22;1821;50.936;6.854;2023-07-29T02:36:54;19.50;99.90
3614;DHT22;1821;50.936;6.854;2023-07-29T02:37:36;19.60;99.90
3614;DHT22;1821;50.936;6.854;2023-07-29T02:38:18;19.60;99.90
3614;DHT22;1821;50.936;6.854;2023-07-29T02:39:00;19.60;95.20
3614;DHT22;1821;50.936;6.854;2023-07-29T02:39:44;19.60;55.60
3614;DHT22;1821;50.936;6.854;2023-07-29T02:40:26;19.50;99.90
3614;DHT22;1821;50.936;6.854;2023-07-29T02:41:10;19.60;1.00
3614;DHT22;1821;50.936;6.854;2023-07-29T02:41:54;19.50;1.00
3614;DHT22;1821;50.936;6.854;2023-07-29T02:42:37;19.60;1.00
3614;DHT22;1821;50.936;6.854;2023-07-29T02:43:20;19.60;1.00
3614;DHT22;1821;50.936;6.854;2023-07-29T02:44:02;19.60;12.60
3614;DHT22;1821;50.936;6.854;2023-07-29T02:44:45;19.60;37.70
3614;DHT22;1821;50.936;6.854;2023-07-29T02:45:29;19.60;40.00
3614;DHT22;1821;50.936;6.854;2023-07-29T02:46:13;19.70;31.90
3614;DHT22;1821;50.936;6.854;2023-07-29T02:46:55;19.70;12.40
3614;DHT22;1821;50.936;6.854;2023-07-29T02:47:38;19.70;89.90
3614;DHT22;1821;50.936;6.854;2023-07-29T02:48:20;19.70;99.90
3614;DHT22;1821;50.936;6.854;2023-07-29T02:49:04;19.60;99.90
3614;DHT22;1821;50.936;6.854;2023-07-29T02:49:47;19.70;99.90
3614;DHT22;1821;50.936;6.854;2023-07-29T02:50:31;19.70;99.90
3614;DHT22;1821;50.936;6.854;2023-07-29T02:51:15;19.60;99.90
3614;DHT22;1821;50.936;6.854;2023-07-29T02:51:59;19.70;99.90
3614;DHT22;1821;50.936;6.854;2023-07-29T02:52:41;19.70;99.90
3614;DHT22;1821;50.936;6.854;2023-07-29T02:53:23;19.70;99.90
3614;DHT22;1821;50.936;6.854;2023-07-29T02:54:05;19.60;54.90
3614;DHT22;1821;50.936;6.854;2023-07-29T02:54:47;19.70;99.90
3614;DHT22;1821;50.936;6.854;2023-07-29T02:55:29;19.80;99.90
3614;DHT22;1821;50.936;6.854;2023-07-29T02:56:11;19.60;99.90
3614;DHT22;1821;50.936;6.854;2023-07-29T02:56:53;19.70;76.70
3614;DHT22;1821;50.936;6.854;2023-07-29T02:57:35;19.60;65.90
3614;DHT22;1821;50.936;6.854;2023-07-29T02:58:17;19.60;99.90
3614;DHT22;1821;50.936;6.854;2023-07-29T02:58:59;19.70;99.90
3614;DHT22;1821;50.936;6.854;2023-07-29T02:59:42;19.70;99.90
3614;DHT22;1821;50.936;6.854;2023-07-29T03:00:24;19.70;99.90
3614;DHT22;1821;50.936;6.854;2023-07-29T03:01:06;19.70;95.00
3614;DHT22;1821;50.936;6.854;2023-07-29T03:01:48;19.70;99.90
3614;DHT22;1821;50.936;6.854;2023-07-29T03:02:30;19.70;93.70
3614;DHT22;1821;50.936;6.854;2023-07-29T03:03:14;19.70;41.50
3614;DHT22;1821;50.936;6.854;2023-07-29T03:03:57;19.70;1.00
3614;DHT22;1821;50.936;6.854;2023-07-29T03:04:41;19.70;1.00
3614;DHT22;1821;50.936;6.854;2023-07-29T03:05:23;19.70;1.00
3614;DHT22;1821;50.936;6.854;2023-07-29T03:06:08;19.60;1.00
3614;DHT22;1821;50.936;6.854;2023-07-29T03:06:50;19.70;1.00
3614;DHT22;1821;50.936;6.854;2023-07-29T03:07:32;19.60;1.00
3614;DHT22;1821;50.936;6.854;2023-07-29T03:08:16;19.70;1.00
3614;DHT22;1821;50.936;6.854;2023-07-29T03:08:58;19.70;1.00
3614;DHT22;1821;50.936;6.854;2023-07-29T03:09:40;19.70;1.00
3614;DHT22;1821;50.936;6.854;2023-07-29T03:10:23;19.60;1.00
3614;DHT22;1821;50.936;6.854;2023-07-29T03:11:13;19.70;1.00
3614;DHT22;1821;50.936;6.854;2023-07-29T03:11:55;19.70;1.00
3614;DHT22;1821;50.936;6.854;2023-07-29T03:12:38;19.70;1.00
3614;DHT22;1821;50.936;6.854;2023-07-29T03:13:20;19.50;1.00
3614;DHT22;1821;50.936;6.854;2023-07-29T03:14:04;19.60;99.90
3614;DHT22;1821;50.936;6.854;2023-07-29T03:14:48;19.50;99.90
3614;DHT22;1821;50.936;6.854;2023-07-29T03:15:31;19.70;99.90
3614;DHT22;1821;50.936;6.854;2023-07-29T03:16:16;19.60;99.90
3614;DHT22;1821;50.936;6.854;2023-07-29T03:17:02;18.80;99.90
3614;DHT22;1821;50.936;6.854;2023-07-29T03:17:46;19.60;99.90
3614;DHT22;1821;50.936;6.854;2023-07-29T03:18:28;19.60;99.90
3614;DHT22;1821;50.936;6.854;2023-07-29T03:19:09;19.60;99.90
3614;DHT22;1821;50.936;6.854;2023-07-29T03:19:54;19.60;99.90
3614;DHT22;1821;50.936;6.854;2023-07-29T03:20:36;19.70;99.90
3614;DHT22;1821;50.936;6.854;2023-07-29T03:21:20;19.60;99.90
3614;DHT22;1821;50.936;6.854;2023-07-29T03:22:04;19.60;99.90
3614;DHT22;1821;50.936;6.854;2023-07-29T03:22:46;19.60;99.90
3614;DHT22;1821;50.936;6.854;2023-07-29T03:23:29;19.60;99.90
3614;DHT22;1821;50.936;6.854;2023-07-29T03:24:11;19.60;65.40
3614;DHT22;1821;50.936;6.854;2023-07-29T03:24:53;19.60;85.40
3614;DHT22;1821;50.936;6.854;2023-07-29T03:25:35;19.60;9.10
3614;DHT22;1821;50.936;6.854;2023-07-29T03:26:19;19.60;1.00
3614;DHT22;1821;50.936;6.854;2023-07-29T03:27:01;19.60;21.60
3614;DHT22;1821;50.936;6.854;2023-07-29T03:27:43;19.60;5.00
3614;DHT22;1821;50.936;6.854;2023-07-29T03:28:27;19.50;1.00
3614;DHT22;1821;50.936;6.854;2023-07-29T03:29:09;19.40;1.00
3614;DHT22;1821;50.936;6.854;2023-07-29T03:29:51;19.60;9.60
3614;DHT22;1821;50.936;6.854;2023-07-29T03:30:33;19.60;17.30
3614;DHT22;1821;50.936;6.854;2023-07-29T03:31:15;19.40;1.00
3614;DHT22;1821;50.936;6.854;2023-07-29T03:31:57;19.30;1.00
3614;DHT22;1821;50.936;6.854;2023-07-29T03:32:43;19.70;1.00
3614;DHT22;1821;50.936;6.854;2023-07-29T03:33:27;19.50;1.00
3614;DHT22;1821;50.936;6.854;2023-07-29T03:34:09;19.50;1.00
3614;DHT22;1821;50.936;6.854;2023-07-29T03:34:52;19.50;1.00
3614;DHT22;1821;50.936;6.854;2023-07-29T03:35:34;19.70;14.40
3614;DHT22;1821;50.936;6.854;2023-07-29T03:36:16;19.50;1.00
3614;DHT22;1821;50.936;6.854;2023-07-29T03:37:00;19.50;1.00
3614;DHT22;1821;50.936;6.854;2023-07-29T03:37:42;19.50;1.00
3614;DHT22;1821;50.936;6.854;2023-07-29T03:38:24;19.60;1.00
3614;DHT22;1821;50.936;6.854;2023-07-29T03:39:06;19.50;1.00
3614;DHT22;1821;50.936;6.854;2023-07-29T03:39:49;19.40;1.00
3614;DHT22;1821;50.936;6.854;2023-07-29T03:40:33;19.60;1.00
3614;DHT22;1821;50.936;6.854;2023-07-29T03:41:15;19.50;20.20
3614;DHT22;1821;50.936;6.854;2023-07-29T03:41:59;19.50;99.90
3614;DHT22;1821;50.936;6.854;2023-07-29T03:42:41;19.50;99.90
3614;DHT22;1821;50.936;6.854;2023-07-29T03:43:25;19.50;99.90
3614;DHT22;1821;50.936;6.854;2023-07-29T03:44:09;19.40;99.90
3614;DHT22;1821;50.936;6.854;2023-07-29T03:44:51;19.40;99.90
3614;DHT22;1821;50.936;6.854;2023-07-29T03:45:34;19.40;99.90
3614;DHT22;1821;50.936;6.854;2023-07-29T03:46:16;19.30;99.90
3614;DHT22;1821;50.936;6.854;2023-07-29T03:47:01;19.30;99.90
3614;DHT22;1821;50.936;6.854;2023-07-29T03:47:43;19.40;99.90
3614;DHT22;1821;50.936;6.854;2023-07-29T03:48:25;19.40;99.90
3614;DHT22;1821;50.936;6.854;2023-07-29T03:49:07;19.40;99.90
3614;DHT22;1821;50.936;6.854;2023-07-29T03:49:50;19.50;99.90
3614;DHT22;1821;50.936;6.854;2023-07-29T03:50:33;19.40;99.90
3614;DHT22;1821;50.936;6.854;2023-07-29T03:51:16;19.30;99.90
3614;DHT22;1821;50.936;6.854;2023-07-29T03:51:57;19.30;99.90
3614;DHT22;1821;50.936;6.854;2023-07-29T03:52:39;19.40;99.90
3614;DHT22;1821;50.936;6.854;2023-07-29T03:53:21;19.40;99.90
3614;DHT22;1821;50.936;6.854;2023-07-29T03:54:04;19.40;99.90
3614;DHT22;1821;50.936;6.854;2023-07-29T03:54:45;19.40;99.90
3614;DHT22;1821;50.936;6.854;2023-07-29T03:55:31;19.40;99.90
3614;DHT22;1821;50.936;6.854;2023-07-29T03:56:12;19.30;99.90
3614;DHT22;1821;50.936;6.854;2023-07-29T03:56:54;19.40;99.90
3614;DHT22;1821;50.936;6.854;2023-07-29T03:57:36;19.40;99.90
3614;DHT22;1821;50.936;6.854;2023-07-29T03:58:20;19.40;1.00
3614;DHT22;1821;50.936;6.854;2023-07-29T03:59:05;19.40;1.00
3614;DHT22;1821;50.936;6.854;2023-07-29T03:59:49;19.30;1.00
3614;DHT22;1821;50.936;6.854;2023-07-29T04:00:31;19.20;99.90
3614;DHT22;1821;50.936;6.854;2023-07-29T04:01:15;19.30;99.90
3614;DHT22;1821;50.936;6.854;2023-07-29T04:01:57;19.30;99.90
3614;DHT22;1821;50.936;6.854;2023-07-29T04:02:40;19.40;99.90
3614;DHT22;1821;50.936;6.854;2023-07-29T04:03:23;19.40;99.90
3614;DHT22;1821;50.936;6.854;2023-07-29T04:04:05;19.40;99.90
3614;DHT22;1821;50.936;6.854;2023-07-29T04:04:47;19.30;99.90
3614;DHT22;1821;50.936;6.854;2023-07-29T04:05:30;19.30;99.90
3614;DHT22;1821;50.936;6.854;2023-07-29T04:06:12;19.30;99.90
3614;DHT22;1821;50.936;6.854;2023-07-29T04:06:54;19.40;1.00
3614;DHT22;1821;50.936;6.854;2023-07-29T04:07:36;19.30;1.00
3614;DHT22;1821;50.936;6.854;2023-07-29T04:08:18;19.40;1.00
3614;DHT22;1821;50.936;6.854;2023-07-29T04:09:00;19.30;1.00
3614;DHT22;1821;50.936;6.854;2023-07-29T04:09:45;19.60;1.00
3614;DHT22;1821;50.936;6.854;2023-07-29T04:10:27;19.30;1.00
3614;DHT22;1821;50.936;6.854;2023-07-29T04:11:09;19.20;1.00
3614;DHT22;1821;50.936;6.854;2023-07-29T04:11:51;19.30;1.00
3614;DHT22;1821;50.936;6.854;2023-07-29T04:12:35;19.30;99.90
3614;DHT22;1821;50.936;6.854;2023-07-29T04:13:19;19.30;99.90
3614;DHT22;1821;50.936;6.854;2023-07-29T04:14:01;19.30;1.00
3614;DHT22;1821;50.936;6.854;2023-07-29T04:14:44;19.30;1.00
3614;DHT22;1821;50.936;6.854;2023-07-29T04:15:25;19.30;1.00
3614;DHT22;1821;50.936;6.854;2023-07-29T04:16:10;19.40;1.00
3614;DHT22;1821;50.936;6.854;2023-07-29T04:16:52;19.30;1.00
3614;DHT22;1821;50.936;6.854;2023-07-29T04:17:34;19.40;1.00
3614;DHT22;1821;50.936;6.854;2023-07-29T04:18:16;19.20;1.00
3614;DHT22;1821;50.936;6.854;2023-07-29T04:18:57;19.30;1.00
3614;DHT22;1821;50.936;6.854;2023-07-29T04:19:39;19.20;1.00
3614;DHT22;1821;50.936;6.854;2023-07-29T04:20:21;19.30;1.00
3614;DHT22;1821;50.936;6.854;2023-07-29T04:21:04;19.20;1.00
3614;DHT22;1821;50.936;6.854;2023-07-29T04:21:45;19.30;2.90
3614;DHT22;1821;50.936;6.854;2023-07-29T04:22:28;19.30;4.60
3614;DHT22;1821;50.936;6.854;2023-07-29T04:23:10;19.30;9.30
3614;DHT22;1821;50.936;6.854;2023-07-29T04:23:51;19.30;15.90
3614;DHT22;1821;50.936;6.854;2023-07-29T04:24:34;19.30;1.00
3614;DHT22;1821;50.936;6.854;2023-07-29T04:25:16;19.20;1.00
3614;DHT22;1821;50.936;6.854;2023-07-29T04:26:00;19.10;1.00
3614;DHT22;1821;50.936;6.854;2023-07-29T04:26:41;19.20;1.00
3614;DHT22;1821;50.936;6.854;2023-07-29T04:27:24;19.30;1.00
3614;DHT22;1821;50.936;6.854;2023-07-29T04:28:06;19.40;13.30
3614;DHT22;1821;50.936;6.854;2023-07-29T04:28:48;19.40;22.80
3614;DHT22;1821;50.936;6.854;2023-07-29T04:29:30;19.30;10.30
3614;DHT22;1821;50.936;6.854;2023-07-29T04:30:12;19.30;1.00
3614;DHT22;1821;50.936;6.854;2023-07-29T04:30:56;19.30;1.00
3614;DHT22;1821;50.936;6.854;2023-07-29T04:31:38;19.30;21.30
3614;DHT22;1821;50.936;6.854;2023-07-29T04:32:20;19.30;9.70
3614;DHT22;1821;50.936;6.854;2023-07-29T04:33:03;19.30;1.00
3614;DHT22;1821;50.936;6.854;2023-07-29T04:33:45;19.40;1.00
3614;DHT22;1821;50.936;6.854;2023-07-29T04:34:27;19.30;1.00
3614;DHT22;1821;50.936;6.854;2023-07-29T04:35:09;19.30;1.00
3614;DHT22;1821;50.936;6.854;2023-07-29T04:35:51;19.40;1.00
3614;DHT22;1821;50.936;6.854;2023-07-29T04:36:33;19.30;1.00
3614;DHT22;1821;50.936;6.854;2023-07-29T04:37:15;19.30;1.00
3614;DHT22;1821;50.936;6.854;2023-07-29T04:37:57;19.30;1.00
3614;DHT22;1821;50.936;6.854;2023-07-29T04:38:42;19.20;1.00
3614;DHT22;1821;50.936;6.854;2023-07-29T04:39:24;19.30;1.00
3614;DHT22;1821;50.936;6.854;2023-07-29T04:40:06;19.40;61.40
3614;DHT22;1821;50.936;6.854;2023-07-29T04:40:49;19.40;92.40
3614;DHT22;1821;50.936;6.854;2023-07-29T04:41:31;19.40;99.90
3614;DHT22;1821;50.936;6.854;2023-07-29T04:42:13;19.30;99.90
3614;DHT22;1821;50.936;6.854;2023-07-29T04:42:55;19.40;99.90
3614;DHT22;1821;50.936;6.854;2023-07-29T04:43:37;19.30;94.80
3614;DHT22;1821;50.936;6.854;2023-07-29T04:44:19;19.50;99.90
3614;DHT22;1821;50.936;6.854;2023-07-29T04:45:01;19.50;99.90
3614;DHT22;1821;50.936;6.854;2023-07-29T04:45:45;19.50;91.70
3614;DHT22;1821;50.936;6.854;2023-07-29T04:46:27;19.40;99.90
3614;DHT22;1821;50.936;6.854;2023-07-29T04:47:09;19.40;99.90
3614;DHT22;1821;50.936;6.854;2023-07-29T04:47:51;19.40;99.90
3614;DHT22;1821;50.936;6.854;2023-07-29T04:48:33;19.50;99.90
3614;DHT22;1821;50.936;6.854;2023-07-29T04:49:15;19.40;99.90
3614;DHT22;1821;50.936;6.854;2023-07-29T04:49:57;19.40;99.90
3614;DHT22;1821;50.936;6.854;2023-07-29T04:50:41;19.40;96.60
3614;DHT22;1821;50.936;6.854;2023-07-29T04:51:24;19.40;99.90